createdAt,value
2023-04-01T00:00:12.157Z,7.3770
2023-04-01T00:01:12.930Z,7.3721
2023-04-01T00:02:13.480Z,7.3695
2023-04-01T00:03:13.757Z,7.3917
2023-04-01T00:04:14.574Z,7.3810
2023-04-01T00:05:15.594Z,7.3784
2023-04-01T00:06:15.806Z,7.3858
2023-04-01T00:07:16.426Z,7.3847
2023-04-01T00:08:16.945Z,7.3807
2023-04-01T00:09:18.152Z,7.3829
2023-04-01T00:10:19.695Z,7.3807
2023-04-01T00:12:20.898Z,7.3625
2023-04-01T00:13:21.133Z,7.3462
2023-04-01T00:14:21.248Z,7.3410
2023-04-01T00:15:21.329Z,7.3457
2023-04-01T00:16:24.907Z,7.3364
2023-04-01T00:17:25.897Z,7.3551
2023-04-01T00:18:26.696Z,7.3759
2023-04-01T00:19:27.461Z,7.3759
2023-04-01T00:20:28.258Z,7.3868
2023-04-01T00:21:28.868Z,7.3891
2023-04-01T00:22:29.635Z,7.3844
2023-04-01T00:23:30.374Z,7.3803
2023-04-01T00:24:31.047Z,7.3681
2023-04-01T00:25:32.099Z,7.3895
2023-04-01T00:26:33.124Z,7.3684
2023-04-01T00:27:33.682Z,7.3617
2023-04-01T00:28:34.548Z,7.3524
2023-04-01T00:29:35.352Z,7.3425
2023-04-01T00:30:36.104Z,7.3558
2023-04-01T00:31:37.143Z,7.3555
2023-04-01T00:32:37.951Z,7.3491
2023-04-01T00:33:38.972Z,7.3298
2023-04-01T00:34:39.962Z,7.3265
2023-04-01T00:35:40.863Z,7.3194
2023-04-01T00:36:41.869Z,7.3291
2023-04-01T00:37:42.734Z,7.3275
2023-04-01T00:38:43.394Z,7.3305
2023-04-01T00:39:44.093Z,7.3247
2023-04-01T00:40:44.743Z,7.3354
2023-04-01T00:41:45.538Z,7.3530
2023-04-01T00:42:46.340Z,7.3569
2023-04-01T00:43:46.951Z,7.3867
2023-04-01T00:44:47.715Z,7.3809
2023-04-01T00:45:48.529Z,7.3751
2023-04-01T00:46:49.238Z,7.3711
2023-04-01T00:47:50.586Z,7.3672
2023-04-01T00:48:51.387Z,7.3873
2023-04-01T00:49:52.250Z,7.4119
2023-04-01T00:50:53.072Z,7.3972
2023-04-01T00:51:53.780Z,7.3952
2023-04-01T00:52:54.623Z,7.3878
2023-04-01T00:53:55.522Z,7.3748
2023-04-01T00:54:56.079Z,7.3716
2023-04-01T00:55:56.854Z,7.3813
2023-04-01T00:56:57.656Z,7.3770
2023-04-01T00:57:58.867Z,7.3566
2023-04-01T00:58:59.752Z,7.3415
2023-04-01T01:00:00.493Z,7.3500
2023-04-01T01:01:01.539Z,7.3495
2023-04-01T01:02:02.929Z,7.3268
2023-04-01T01:03:04.075Z,7.3076
2023-04-01T01:04:05.045Z,7.2920
2023-04-01T01:05:05.665Z,7.2770
2023-04-01T01:06:06.303Z,7.2590
2023-04-01T01:07:07.214Z,7.2605
2023-04-01T01:08:07.977Z,7.2493
2023-04-01T01:09:08.825Z,7.2424
2023-04-01T01:10:09.719Z,7.2141
2023-04-01T01:11:11.141Z,7.1813
2023-04-01T01:12:10.529Z,7.1472
2023-04-01T01:13:11.244Z,7.1188
2023-04-01T01:14:12.095Z,7.0975
2023-04-01T01:15:13.161Z,7.0757
2023-04-01T01:16:14.481Z,7.0828
2023-04-01T01:17:15.598Z,7.0422
2023-04-01T01:18:15.595Z,7.0155
2023-04-01T01:19:16.303Z,7.0017
2023-04-01T01:20:26.177Z,7.0093
2023-04-01T01:21:21.211Z,6.9946
2023-04-01T01:22:22.140Z,6.9685
2023-04-01T01:23:22.977Z,6.9390
2023-04-01T01:24:23.714Z,6.9450
2023-04-01T01:25:24.670Z,6.9498
2023-04-01T01:26:26.085Z,6.9680
2023-04-01T01:27:26.818Z,6.9501
2023-04-01T01:28:27.904Z,6.9146
2023-04-01T01:29:28.617Z,6.8811
2023-04-01T01:30:29.549Z,6.9082
2023-04-01T01:31:30.684Z,6.9352
2023-04-01T01:32:31.397Z,6.9126
2023-04-01T01:33:31.782Z,6.9210
2023-04-01T01:34:32.896Z,6.9000
2023-04-01T01:35:57.094Z,6.8896
2023-04-01T01:36:34.227Z,6.9738
2023-04-01T01:37:35.149Z,7.0325
2023-04-01T01:38:35.547Z,7.0274
2023-04-01T01:39:36.668Z,7.0215
2023-04-01T01:40:37.840Z,7.0228
2023-04-01T01:41:37.912Z,6.9906
2023-04-01T01:42:38.013Z,6.9802
2023-04-01T01:43:37.952Z,6.9708
2023-04-01T01:44:38.335Z,6.9778
2023-04-01T01:45:38.208Z,7.0126
2023-04-01T01:46:38.615Z,7.0119
2023-04-01T01:47:39.656Z,6.9994
2023-04-01T01:48:40.067Z,7.0143
2023-04-01T01:49:39.933Z,7.0071
2023-04-01T01:50:40.569Z,7.0161
2023-04-01T01:51:40.852Z,7.0153
2023-04-01T01:52:41.294Z,7.0269
2023-04-01T01:53:41.876Z,7.0515
2023-04-01T01:54:42.059Z,7.1062
2023-04-01T01:55:54.958Z,7.1081
2023-04-01T01:56:55.559Z,7.0764
2023-04-01T01:57:56.492Z,7.0631
2023-04-01T01:58:57.361Z,7.1113
2023-04-01T01:59:58.509Z,7.1110
2023-04-01T02:00:59.395Z,7.1262
2023-04-01T02:02:00.127Z,7.1056
2023-04-01T02:02:59.792Z,7.0823
2023-04-01T02:04:00.639Z,7.0897
2023-04-01T02:05:01.681Z,7.0941
2023-04-01T02:06:02.058Z,7.0999
2023-04-01T02:07:02.881Z,7.1268
2023-04-01T02:08:03.678Z,7.1467
2023-04-01T02:09:04.634Z,7.1204
2023-04-01T02:10:05.742Z,7.1008
2023-04-01T02:11:06.701Z,7.0822
2023-04-01T02:12:07.578Z,7.0728
2023-04-01T02:13:08.350Z,7.0582
2023-04-01T02:14:09.287Z,7.0419
2023-04-01T02:15:10.047Z,7.0714
2023-04-01T02:16:10.839Z,7.0805
2023-04-01T02:17:11.813Z,7.0894
2023-04-01T02:18:13.137Z,7.1146
2023-04-01T02:19:13.917Z,7.1398
2023-04-01T02:20:14.741Z,7.0814
2023-04-01T02:21:15.685Z,7.0560
2023-04-01T02:22:16.515Z,7.0925
2023-04-01T02:23:17.481Z,7.1093
2023-04-01T02:24:18.147Z,7.0948
2023-04-01T02:25:19.149Z,7.0803
2023-04-01T02:26:20.161Z,7.0455
2023-04-01T02:27:20.925Z,7.0677
2023-04-01T02:28:22.068Z,7.0583
2023-04-01T02:29:23.017Z,7.0211
2023-04-01T02:30:23.684Z,7.0194
2023-04-01T02:31:24.627Z,7.0112
2023-04-01T02:32:25.711Z,7.0479
2023-04-01T02:33:26.704Z,7.0683
2023-04-01T02:34:27.649Z,7.0551
2023-04-01T02:35:28.389Z,7.0838
2023-04-01T02:36:29.561Z,7.0738
2023-04-01T02:37:30.851Z,7.1315
2023-04-01T02:38:30.711Z,7.1351
2023-04-01T02:39:31.495Z,7.1144
2023-04-01T02:40:32.433Z,7.1165
2023-04-01T02:41:33.210Z,7.1143
2023-04-01T02:42:34.134Z,7.1440
2023-04-01T02:43:34.929Z,7.1458
2023-04-01T02:44:35.761Z,7.1221
2023-04-01T02:45:35.898Z,7.0865
2023-04-01T02:46:36.816Z,7.0657
2023-04-01T02:47:37.051Z,7.0598
2023-04-01T02:48:37.980Z,7.0435
2023-04-01T02:49:38.915Z,7.0198
2023-04-01T02:50:39.826Z,6.9547
2023-04-01T02:51:40.212Z,6.9262
2023-04-01T02:52:41.009Z,6.8949
2023-04-01T02:53:42.218Z,6.8792
2023-04-01T02:54:43.093Z,6.8755
2023-04-01T02:55:44.139Z,6.8614
2023-04-01T02:56:44.838Z,6.9388
2023-04-01T02:57:44.973Z,6.9452
2023-04-01T02:58:45.894Z,6.8950
2023-04-01T02:59:46.561Z,6.8735
2023-04-01T03:00:47.534Z,6.8503
2023-04-01T03:01:48.388Z,6.8248
2023-04-01T03:02:48.644Z,6.8208
2023-04-01T03:03:48.995Z,6.8401
2023-04-01T03:04:49.672Z,6.8860
2023-04-01T03:05:50.253Z,6.9074
2023-04-01T03:06:51.051Z,6.9210
2023-04-01T03:07:51.889Z,6.9467
2023-04-01T03:08:52.750Z,6.9784
2023-04-01T03:09:53.436Z,6.9581
2023-04-01T03:10:54.302Z,6.9750
2023-04-01T03:11:55.157Z,6.9478
2023-04-01T03:12:56.014Z,6.9470
2023-04-01T03:13:57.213Z,6.9291
2023-04-01T03:14:57.926Z,6.9051
2023-04-01T03:15:59.175Z,6.9033
2023-04-01T03:16:59.329Z,6.9306
2023-04-01T03:18:00.267Z,6.9092
2023-04-01T03:19:01.371Z,6.8547
2023-04-01T03:20:02.381Z,6.8550
2023-04-01T03:21:03.101Z,6.9658
2023-04-01T03:22:04.165Z,6.9814
2023-04-01T03:23:05.309Z,6.9563
2023-04-01T03:24:06.179Z,6.9443
2023-04-01T03:25:07.448Z,6.9364
2023-04-01T03:26:07.896Z,6.8968
2023-04-01T03:27:08.759Z,6.8839
2023-04-01T03:28:09.718Z,6.9407
2023-04-01T03:29:10.518Z,6.9212
2023-04-01T03:30:11.534Z,6.8748
2023-04-01T03:31:11.746Z,6.8284
2023-04-01T03:32:12.666Z,6.8182
2023-04-01T03:33:13.107Z,6.8106
2023-04-01T03:34:13.975Z,6.8249
2023-04-01T03:35:14.908Z,6.8303
2023-04-01T03:36:16.078Z,6.8071
2023-04-01T03:37:17.151Z,6.7828
2023-04-01T03:38:18.085Z,6.7892
2023-04-01T03:39:19.081Z,6.7846
2023-04-01T03:40:19.905Z,6.7631
2023-04-01T03:41:20.876Z,6.7792
2023-04-01T03:42:21.757Z,6.7798
2023-04-01T03:43:23.043Z,6.7568
2023-04-01T03:44:24.103Z,6.7577
2023-04-01T03:45:24.736Z,6.7689
2023-04-01T03:46:25.210Z,6.7615
2023-04-01T03:47:46.300Z,6.8060
2023-04-01T03:49:04.317Z,6.8504
2023-04-01T03:49:47.352Z,6.8971
2023-04-01T03:51:06.614Z,6.9131
2023-04-01T03:51:47.692Z,6.9451
2023-04-01T03:52:48.713Z,6.9475
2023-04-01T03:53:54.900Z,6.9470
2023-04-01T03:54:49.620Z,6.9702
2023-04-01T03:55:50.856Z,7.0406
2023-04-01T03:56:51.592Z,7.0272
2023-04-01T03:57:52.238Z,6.9960
2023-04-01T03:58:52.407Z,6.9843
2023-04-01T03:59:52.898Z,7.0024
2023-04-01T04:00:53.042Z,7.0196
2023-04-01T04:01:53.174Z,7.0162
2023-04-01T04:02:54.010Z,7.0367
2023-04-01T04:03:54.313Z,7.0286
2023-04-01T04:04:54.888Z,7.0327
2023-04-01T04:05:56.534Z,7.0040
2023-04-01T04:06:56.557Z,6.9653
2023-04-01T04:07:57.468Z,6.9317
2023-04-01T04:08:58.360Z,6.8914
2023-04-01T04:09:59.418Z,6.8718
2023-04-01T04:11:00.401Z,6.9173
2023-04-01T04:12:01.420Z,6.9601
2023-04-01T04:14:01.972Z,6.8872
2023-04-01T04:15:02.935Z,6.9000
2023-04-01T04:16:04.074Z,6.9207
2023-04-01T04:17:05.002Z,6.9548
2023-04-01T04:18:06.147Z,6.9851
2023-04-01T04:19:07.146Z,7.0352
2023-04-01T04:20:08.132Z,7.0516
2023-04-01T04:21:09.011Z,7.0560
2023-04-01T04:22:09.833Z,7.0487
2023-04-01T04:23:10.708Z,7.0619
2023-04-01T04:24:11.714Z,7.0676
2023-04-01T04:25:11.734Z,7.0372
2023-04-01T04:26:12.524Z,7.0738
2023-04-01T04:27:13.377Z,7.0858
2023-04-01T04:28:14.098Z,7.1195
2023-04-01T04:29:28.058Z,7.1192
2023-04-01T04:30:31.111Z,7.1148
2023-04-01T04:31:29.686Z,7.1118
2023-04-01T04:32:31.204Z,7.0870
2023-04-01T04:33:53.177Z,7.0735
2023-04-01T04:34:33.260Z,7.0680
2023-04-01T04:35:35.257Z,7.0161
2023-04-01T04:36:35.327Z,6.8853
2023-04-01T04:37:36.710Z,6.7585
2023-04-01T04:38:37.726Z,6.6833
2023-04-01T04:39:38.923Z,6.6943
2023-04-01T04:40:39.941Z,6.6600
2023-04-01T04:41:40.862Z,6.6395
2023-04-01T04:42:41.859Z,6.5786
2023-04-01T04:43:42.951Z,6.5411
2023-04-01T04:44:43.245Z,6.5895
2023-04-01T04:45:43.645Z,6.6251
2023-04-01T04:47:56.026Z,6.6070
2023-04-01T04:48:56.530Z,6.5875
2023-04-01T04:49:57.412Z,6.5728
2023-04-01T04:50:57.517Z,6.5670
2023-04-01T04:51:58.698Z,6.5462
2023-04-01T04:52:59.987Z,6.5214
2023-04-01T04:54:00.423Z,6.4867
2023-04-01T04:55:01.627Z,6.4540
2023-04-01T04:56:02.356Z,6.4299
2023-04-01T04:57:02.995Z,6.4062
2023-04-01T04:58:03.642Z,6.4194
2023-04-01T04:59:05.038Z,6.4134
2023-04-01T05:00:05.773Z,6.3915
2023-04-01T05:01:06.539Z,6.3608
2023-04-01T05:02:08.345Z,6.3161
2023-04-01T05:03:08.153Z,6.2737
2023-04-01T05:04:09.257Z,6.2444
2023-04-01T05:05:09.882Z,6.1776
2023-04-01T05:06:10.092Z,6.1619
2023-04-01T05:07:10.726Z,6.2021
2023-04-01T05:08:12.431Z,6.1988
2023-04-01T05:09:12.631Z,6.1823
2023-04-01T05:10:13.473Z,6.1689
2023-04-01T05:11:15.917Z,6.1497
2023-04-01T05:12:18.029Z,6.1282
2023-04-01T05:13:18.350Z,6.1359
2023-04-01T05:14:18.434Z,6.1610
2023-04-01T05:15:18.826Z,6.1626
2023-04-01T05:16:19.424Z,6.1535
2023-04-01T05:17:20.024Z,6.1411
2023-04-01T05:18:20.868Z,6.1233
2023-04-01T05:19:22.320Z,6.1098
2023-04-01T05:20:22.533Z,6.0619
2023-04-01T05:21:22.748Z,6.0774
2023-04-01T05:22:24.381Z,6.0782
2023-04-01T05:23:25.586Z,6.0557
2023-04-01T05:24:26.013Z,6.0478
2023-04-01T05:25:26.307Z,6.0619
2023-04-01T05:26:26.892Z,6.0779
2023-04-01T05:27:27.363Z,6.0944
2023-04-01T05:28:28.166Z,6.1136
2023-04-01T05:29:28.559Z,6.1283
2023-04-01T05:30:29.220Z,6.1260
2023-04-01T05:33:31.267Z,6.1430
2023-04-01T05:34:32.565Z,6.1891
2023-04-01T05:35:33.295Z,6.1780
2023-04-01T05:36:34.414Z,6.1624
2023-04-01T05:37:34.373Z,6.1424
2023-04-01T05:38:35.319Z,6.1065
2023-04-01T05:39:35.982Z,6.1019
2023-04-01T05:40:35.576Z,6.0998
2023-04-01T05:41:36.085Z,6.0800
2023-04-01T05:42:37.646Z,6.0691
2023-04-01T05:43:37.341Z,6.0731
2023-04-01T05:44:38.120Z,6.1265
2023-04-01T05:45:39.539Z,6.1215
2023-04-01T05:46:39.940Z,6.1299
2023-04-01T05:47:40.318Z,6.1246
2023-04-01T05:48:40.905Z,6.1387
2023-04-01T05:49:41.421Z,6.1553
2023-04-01T05:50:42.504Z,6.1616
2023-04-01T05:51:43.276Z,6.1776
2023-04-01T05:52:43.717Z,6.2075
2023-04-01T05:53:45.041Z,6.2313
2023-04-01T05:54:46.261Z,6.2579
2023-04-01T05:55:47.147Z,6.2661
2023-04-01T05:56:48.839Z,6.2748
2023-04-01T05:57:49.805Z,6.2866
2023-04-01T05:58:49.817Z,6.3110
2023-04-01T05:59:50.066Z,6.3587
2023-04-01T06:01:02.262Z,6.3860
2023-04-01T06:01:52.159Z,6.3825
2023-04-01T06:02:53.224Z,6.3582
2023-04-01T06:03:53.262Z,6.3588
2023-04-01T06:04:53.694Z,6.3552
2023-04-01T06:05:55.420Z,6.3488
2023-04-01T06:06:55.840Z,6.3234
2023-04-01T06:08:06.210Z,6.3242
2023-04-01T06:09:07.277Z,6.3203
2023-04-01T06:10:08.257Z,6.3303
2023-04-01T06:11:08.552Z,6.3560
2023-04-01T06:12:09.844Z,6.3740
2023-04-01T06:13:10.734Z,6.4168
2023-04-01T06:14:11.709Z,6.4854
2023-04-01T06:15:13.001Z,6.5351
2023-04-01T06:16:13.106Z,6.5828
2023-04-01T06:17:13.237Z,6.5785
2023-04-01T06:18:14.200Z,6.5988
2023-04-01T06:19:15.537Z,6.6468
2023-04-01T06:20:16.515Z,6.6473
2023-04-01T06:21:17.412Z,6.6499
2023-04-01T06:22:18.712Z,6.6690
2023-04-01T06:23:19.985Z,6.7058
2023-04-01T06:24:21.090Z,6.7432
2023-04-01T06:25:21.981Z,6.7469
2023-04-01T06:26:22.631Z,6.7615
2023-04-01T06:27:24.071Z,6.7796
2023-04-01T06:28:23.884Z,6.7881
2023-04-01T06:29:25.322Z,6.8110
2023-04-01T06:30:25.314Z,6.8179
2023-04-01T06:31:25.760Z,6.8317
2023-04-01T06:32:45.040Z,6.8211
2023-04-01T06:33:46.059Z,6.8319
2023-04-01T06:34:46.801Z,6.8390
2023-04-01T06:35:48.418Z,6.8396
2023-04-01T06:36:48.438Z,6.8802
2023-04-01T06:37:49.065Z,6.9388
2023-04-01T06:38:50.766Z,6.9995
2023-04-01T06:40:11.844Z,7.0742
2023-04-01T06:41:12.236Z,7.1418
2023-04-01T06:42:12.802Z,7.1661
2023-04-01T06:43:16.667Z,7.1785
2023-04-01T06:44:17.715Z,7.1879
2023-04-01T06:45:18.225Z,7.1941
2023-04-01T06:46:19.283Z,7.1923
2023-04-01T06:47:19.913Z,7.1733
2023-04-01T06:48:21.148Z,7.1953
2023-04-01T06:49:22.438Z,7.1892
2023-04-01T06:50:23.566Z,7.1853
2023-04-01T06:51:24.940Z,7.2026
2023-04-01T06:52:24.841Z,7.2268
2023-04-01T06:53:25.818Z,7.2793
2023-04-01T06:54:26.874Z,7.3271
2023-04-01T06:55:27.938Z,7.3750
2023-04-01T06:56:28.895Z,7.4124
2023-04-01T06:57:29.347Z,7.4419
2023-04-01T06:58:29.268Z,7.4691
2023-04-01T06:59:30.313Z,7.5165
2023-04-01T07:00:31.621Z,7.5612
2023-04-01T07:01:31.709Z,7.5498
2023-04-01T07:02:32.835Z,7.5612
2023-04-01T07:03:34.323Z,7.5536
2023-04-01T07:04:35.432Z,7.5410
2023-04-01T07:05:35.476Z,7.5423
2023-04-01T07:06:36.327Z,7.5200
2023-04-01T07:07:37.401Z,7.5291
2023-04-01T07:08:38.554Z,7.5274
2023-04-01T07:09:39.421Z,7.5371
2023-04-01T07:10:40.481Z,7.5520
2023-04-01T07:11:41.452Z,7.5442
2023-04-01T07:12:42.326Z,7.5410
2023-04-01T07:13:43.389Z,7.5410
2023-04-01T07:14:44.220Z,7.5525
2023-04-01T07:15:44.357Z,7.5356
2023-04-01T07:16:44.473Z,7.5336
2023-04-01T07:17:45.487Z,7.5245
2023-04-01T07:18:45.551Z,7.4851
2023-04-01T07:19:46.604Z,7.4416
2023-04-01T07:20:47.589Z,7.4101
2023-04-01T07:21:48.721Z,7.3729
2023-04-01T07:22:53.686Z,7.3572
2023-04-01T07:23:54.319Z,7.2953
2023-04-01T07:24:54.845Z,7.2456
